Flight Track Log - Related Links

Times and Time Zones

All times are in EDT time to prevent confusion due to time zone crossing. See the VNR160 flight status page for this flight to view local times or setup timezone preferences in your user account.

Time Position Orientation Groundspeed Altitude Reporting Facility
EDT Latitude Longitude Course Direction KTS MPH feet Rate Location/Type
Sun 01:24:35 PM 29.6306 -95.2608 221° Southwest 147 169 800  Level Houston Center
Sun 01:25:30 PM 29.5942 -95.2533 170° South 164 189 2,400 1,758 Climbing Houston Center
Sun 01:26:14 PM 29.5639 -95.2494 174° South 158 182 3,700 1,869 Climbing Houston Center
Sun 01:26:31 PM 29.5494 -95.2467 171° South 164 189 4,300 1,548 Climbing Houston Center
Sun 01:27:16 PM 29.5156 -95.2397 170° South 175 201 5,300 1,770 Climbing Houston Center
Sun 01:27:32 PM 29.4942 -95.2367 173° South 194 223 6,100 1,935 Climbing Houston Center
Sun 01:28:18 PM 29.4608 -95.2342 176° South 194 223 7,300 1,839 Climbing Houston Center
Sun 01:28:34 PM 29.4400 -95.2431 200° South 200 230 8,000 2,129 Climbing Houston Center
Sun 01:29:20 PM 29.3975 -95.2653 204° Southwest 206 237 9,500 1,944 Climbing Houston Center
Sun 01:30:00 PM 29.2384 -95.7117 221° Southwest  Level FlightAware Approximate
Sun 01:30:22 PM 29.3425 -95.2922 203° Southwest 213 245 11,500  Level Houston Center
Sun 01:31:24 PM 29.2939 -95.3328 216° Southwest 222 255 13,300 1,872 Climbing Houston Center
Sun 01:32:27 PM 29.2622 -95.3917 238° Southwest 218 251 15,400 1,728 Climbing Houston Center
Sun 01:33:29 PM 29.2292 -95.4514 238° Southwest 219 252 16,900 1,403 Climbing Houston Center
Sun 01:34:31 PM 29.1931 -95.5169 238° Southwest 235 270 18,300 1,403 Climbing Houston Center
Sun 01:35:33 PM 29.1581 -95.5836 239° Southwest 244 281 19,800 1,887 Climbing Houston Center
Sun 01:36:35 PM 29.1161 -95.6603 238° Southwest 239 275 22,200 2,177 Climbing Houston Center
Sun 01:37:37 PM 29.0808 -95.7181 235° Southwest 227 261 24,300 1,742 Climbing Houston Center
Sun 01:38:39 PM 29.0447 -95.7683 231° Southwest 211 243 25,800 1,355 Climbing Houston Center
Sun 01:39:41 PM 29.0056 -95.8236 231° Southwest 219 252 27,100 1,258 Climbing Houston Center
Sun 01:40:43 PM 28.9656 -95.8794 231° Southwest 226 260 28,400 1,161 Climbing Houston Center
Sun 01:41:45 PM 28.9250 -95.9367 231° Southwest 231 266 29,500 1,161 Climbing Houston Center
Sun 01:42:47 PM 28.8806 -95.9975 230° Southwest 228 262 30,800 1,161 Climbing Houston Center
Sun 01:43:49 PM 28.8422 -96.0517 231° Southwest 222 255 31,900 919 Climbing Houston Center
Sun 01:44:51 PM 28.8039 -96.1058 231° Southwest 218 251 32,700 726 Climbing Houston Center
Sun 01:45:53 PM 28.7561 -96.1728 231° Southwest 225 259 33,400 581 Climbing Houston Center
Sun 01:46:55 PM 28.7147 -96.2306 231° Southwest 233 268 33,900 290 Climbing Houston Center
Sun 01:47:57 PM 28.6725 -96.2892 231° Southwest 238 274 34,000 48 Climbing Houston Center
Sun 01:48:59 PM 28.6267 -96.3517 230° Southwest 257 296 34,000  Level Houston Center
Sun 01:50:01 PM 28.5794 -96.4192 231° Southwest 270 311 34,000  Level Houston Center
Sun 01:51:03 PM 28.5311 -96.4872 231° Southwest 276 318 34,000  Level Houston Center
Sun 01:52:05 PM 28.4700 -96.5703 230° Southwest 283 326 34,000  Level Houston Center
Sun 01:53:07 PM 28.4200 -96.6406 231° Southwest 284 327 34,000  Level Houston Center
Sun 01:54:09 PM 28.3694 -96.7097 230° Southwest 284 327 34,000  Level Houston Center
Sun 01:55:11 PM 28.3194 -96.7797 231° Southwest 285 328 34,000  Level Houston Center
Sun 01:56:13 PM 28.2689 -96.8494 231° Southwest 285 328 34,000  Level Houston Center
Sun 01:57:15 PM 28.2169 -96.9161 229° Southwest 283 326 34,000  Level Houston Center
Sun 01:58:17 PM 28.1561 -97.0014 231° Southwest 289 333 34,000  Level Houston Center
Sun 01:59:19 PM 28.1050 -97.0711 230° Southwest 289 333 34,000  Level Houston Center
Sun 02:00:21 PM 28.0547 -97.1408 231° Southwest 287 330 34,000  Level Houston Center
Sun 02:01:23 PM 28.0039 -97.2117 231° Southwest 290 334 34,000  Level Houston Center
Sun 02:02:25 PM 27.9475 -97.2847 229° Southwest 287 330 34,000  Level Houston Center
Sun 02:03:28 PM 27.8975 -97.3542 231° Southwest 286 329 34,000  Level Houston Center
Sun 02:04:30 PM 27.8450 -97.4242 230° Southwest 289 333 34,000  Level Houston Center
Sun 02:05:32 PM 27.7928 -97.4933 230° Southwest 289 333 34,000  Level Houston Center
Sun 02:06:34 PM 27.7414 -97.5628 230° Southwest 289 333 34,000  Level Houston Center
Sun 02:07:36 PM 27.6797 -97.6472 231° Southwest 291 335 34,000 145 Level Houston Center
Sun 02:08:38 PM 27.6292 -97.7169 231° Southwest 288 331 34,300 387 Climbing Houston Center
Sun 02:09:40 PM 27.5778 -97.7831 229° Southwest 280 322 34,800 484 Climbing Houston Center
Sun 02:10:42 PM 27.5292 -97.8489 230° Southwest 274 315 35,300 484 Climbing Houston Center
Sun 02:11:44 PM 27.4825 -97.9128 231° Southwest 266 306 35,800 336 Climbing Houston Center
Sun 02:12:47 PM 27.4350 -97.9753 229° Southwest 263 303 36,000 48 Climbing Houston Center
Sun 02:13:49 PM 27.3775 -98.0544 231° Southwest 271 312 35,900  Descending Houston Center
Sun 02:14:51 PM 27.3253 -98.1211 229° Southwest 278 320 36,000 48 Climbing Houston Center
Sun 02:15:53 PM 27.2742 -98.1908 230° Southwest 286 329 36,000  Level Houston Center
Sun 02:16:55 PM 27.2217 -98.2589 229° Southwest 287 330 36,000  Level Houston Center
Sun 02:17:57 PM 27.1703 -98.3281 230° Southwest 288 331 36,000  Level Houston Center
Sun 02:18:59 PM 27.1181 -98.3978 230° Southwest 290 334 36,000  Level Houston Center
Sun 02:20:01 PM 27.0547 -98.4817 230° Southwest 293 337 36,000  Level Houston Center
Sun 02:21:04 PM 26.9742 -98.5208 203° Southwest 329 379 36,000  Level Houston Center
Sun 02:22:06 PM 26.8778 -98.5303 185° South 346 398 36,000  Level Houston Center
Sun 02:23:08 PM 26.7694 -98.5475 188° South 345 397 36,000  Level Houston Center
Sun 02:24:10 PM 26.6728 -98.5603 187° South 347 399 36,000  Level Houston Center
Sun 02:25:12 PM 26.5897 -98.5725 187° South 346 398 36,000  Level Houston Center
Sun 02:26:14 PM 26.4722 -98.5889 187° South 349 402 36,000  Level Houston Center
Sun 02:27:16 PM 26.3758 -98.6017 187° South 348 400 36,000  Level Houston Center
Sun 02:28:18 PM 26.2717 -98.6164 187° South 347 399 36,000  Level Houston Center
Sun 02:30:00 PM 26.1267 -98.6350 187° South  Level Estimated
Sun 02:37:00 PM 25.5296 -98.7110 187° South  Level Estimated
Sun 02:38:00 PM 25.4444 -98.7218 187° South  Level Estimated
Sun 02:39:00 PM 25.3591 -98.7325 187° South  Level Estimated
Sun 02:40:00 PM 25.2738 -98.7433 187° South  Level Estimated
Sun 02:41:00 PM 25.1885 -98.7541 187° South  Level Estimated
Sun 02:42:00 PM 25.1032 -98.7648 187° South  Level Estimated
Sun 02:43:00 PM 25.0179 -98.7755 186° South  Level Estimated
Sun 02:44:00 PM 24.9326 -98.7862 186° South  Level Estimated
Sun 02:45:00 PM 24.8473 -98.7969 186° South  Level Estimated
Sun 02:46:00 PM 24.7620 -98.8076 186° South  Level Estimated
Sun 02:47:00 PM 24.6767 -98.8182 186° South  Level Estimated
Sun 02:48:00 PM 24.5914 -98.8289 186° South  Level Estimated
Sun 02:49:00 PM 24.5061 -98.8395 186° South  Level Estimated
Sun 02:50:00 PM 24.4208 -98.8501 186° South  Level Estimated
Sun 02:51:00 PM 24.3355 -98.8607 186° South  Level Estimated
Sun 02:52:00 PM 24.2502 -98.8713 186° South  Level Estimated
Sun 02:53:00 PM 24.1649 -98.8819 186° South  Level Estimated
Sun 02:54:00 PM 24.0795 -98.8925 186° South  Level Estimated
Sun 02:55:00 PM 23.9942 -98.9030 186° South  Level Estimated
Sun 02:56:00 PM 23.9089 -98.9135 186° South  Level Estimated
Sun 02:57:00 PM 23.8236 -98.9241 186° South  Level Estimated
Sun 02:58:00 PM 23.7383 -98.9346 186° South  Level Estimated
Sun 02:59:00 PM 23.6530 -98.9451 186° South  Level Estimated
Sun 03:00:00 PM 23.5677 -98.9555 186° South  Level Estimated
Sun 03:01:00 PM 23.4824 -98.9660 186° South  Level Estimated
Sun 03:02:00 PM 23.3971 -98.9764 186° South  Level Estimated
Sun 03:03:00 PM 23.3118 -98.9869 186° South  Level Estimated
Sun 03:04:00 PM 23.2264 -98.9973 186° South  Level Estimated
Sun 03:05:00 PM 23.1411 -99.0077 186° South  Level Estimated
Sun 03:06:00 PM 23.0558 -99.0181 186° South  Level Estimated
Sun 03:07:00 PM 22.9705 -99.0285 186° South  Level Estimated
Sun 03:08:00 PM 22.8852 -99.0389 186° South  Level Estimated
Sun 03:09:00 PM 22.7999 -99.0492 186° South  Level Estimated
Sun 03:10:00 PM 22.7146 -99.0596 186° South  Level Estimated
Sun 03:11:00 PM 22.6292 -99.0699 186° South  Level Estimated
Sun 03:12:00 PM 22.5439 -99.0802 186° South  Level Estimated
Sun 03:13:00 PM 22.4586 -99.0905 186° South  Level Estimated
Sun 03:14:00 PM 22.3733 -99.1008 186° South  Level Estimated
Sun 03:15:00 PM 22.2880 -99.1111 186° South  Level Estimated
Sun 03:16:00 PM 22.2026 -99.1214 186° South  Level Estimated
Sun 03:17:00 PM 22.1173 -99.1316 186° South  Level Estimated
Sun 03:18:00 PM 22.0320 -99.1419 186° South  Level Estimated
Sun 03:19:00 PM 21.9467 -99.1521 186° South  Level Estimated
Sun 03:20:00 PM 21.8614 -99.1623 186° South  Level Estimated
Sun 03:21:00 PM 21.7760 -99.1725 186° South  Level Estimated
Sun 03:22:00 PM 21.6907 -99.1827 186° South  Level Estimated
Sun 03:23:00 PM 21.6054 -99.1929 186° South  Level Estimated
Sun 03:24:00 PM 21.5201 -99.2031 186° South  Level Estimated
Sun 03:25:00 PM 21.4347 -99.2132 186° South  Level Estimated
Sun 03:26:00 PM 21.3494 -99.2234 186° South  Level Estimated
Sun 03:27:00 PM 21.2641 -99.2335 186° South  Level Estimated
Sun 03:28:00 PM 21.1787 -99.2436 186° South  Level Estimated
Sun 03:29:00 PM 21.0934 -99.2537 186° South  Level Estimated
Sun 03:30:00 PM 21.0081 -99.2638 186° South  Level Estimated
Sun 03:31:00 PM 20.9228 -99.2739 186° South  Level Estimated
Sun 03:32:00 PM 20.8374 -99.2840 186° South  Level Estimated
Sun 03:33:00 PM 20.7521 -99.2941 186° South  Level Estimated
Sun 03:34:00 PM 20.6668 -99.3041 186° South  Level Estimated
Sun 03:35:00 PM 20.5814 -99.3142 186° South  Level Estimated
Sun 03:36:00 PM 20.4961 -99.3242 186° South  Level Estimated
Sun 03:37:00 PM 20.4108 -99.3342 186° South  Level Estimated
Sun 03:38:00 PM 20.3254 -99.3442 186° South  Level Estimated
Sun 03:39:00 PM 20.2401 -99.3542 186° South  Level Estimated
Sun 03:40:00 PM 20.1548 -99.3642 186° South  Level Estimated
Sun 03:41:00 PM 20.0694 -99.3742 186° South  Level Estimated
Sun 03:42:00 PM 19.9841 -99.3842 186° South  Level Estimated
Sun 03:43:00 PM 19.8988 -99.3941 186° South  Level Estimated
Sun 03:44:00 PM 19.8134 -99.4041 186° South  Level Estimated
Sun 03:45:00 PM 19.7281 -99.4140 186° South  Level Estimated
Sun 03:46:00 PM 19.6427 -99.4239 186° South  Level Estimated
Sun 03:47:00 PM 19.5574 -99.4338 186° South  Level Estimated
Sun 03:48:00 PM 19.4720 -99.4437 186° South  Level Estimated
Sun 03:49:00 PM 19.3867 -99.4536 186° South  Level Estimated
Sun 03:50:00 PM 19.3014 -99.4635 186° South  Level Estimated
Sun 03:51:00 PM 19.2160 -99.4734 186° South  Level Estimated
Sun 03:52:00 PM 19.1307 -99.4832 186° South  Level Estimated
Sun 03:53:00 PM 19.0453 -99.4931 186° South  Level Estimated
Sun 03:54:00 PM 18.9600 -99.5029 186° South  Level Estimated
Sun 03:55:00 PM 18.8747 -99.5127 186° South  Level Estimated
Sun 03:56:00 PM 18.7893 -99.5226 186° South  Level Estimated
Sun 03:57:00 PM 18.7040 -99.5324 186° South  Level Estimated
Sun 03:58:00 PM 18.6187 -99.5422 186° South  Level Estimated
Sun 03:59:00 PM 18.5333 -99.5519 186° South  Level Estimated
Sun 04:00:00 PM 18.4480 -99.5617 186° South  Level Estimated
Sun 04:01:00 PM 18.3626 -99.5715 186° South  Level Estimated
Sun 04:02:00 PM 18.2773 -99.5813 186° South  Level Estimated
Sun 04:03:00 PM 18.1919 -99.5910 186° South  Level Estimated
Sun 04:04:00 PM 18.1066 -99.6008 186° South  Level Estimated
Sun 04:05:00 PM 18.0212 -99.6105 186° South  Level Estimated
Sun 04:06:00 PM 17.9359 -99.6202 186° South  Level Estimated
Sun 04:07:00 PM 17.8505 -99.6299 186° South  Level Estimated
Sun 04:08:00 PM 17.7652 -99.6396 186° South  Level Estimated
Sun 04:09:00 PM 17.6798 -99.6493 186° South  Level Estimated
Sun 04:10:00 PM 17.5944 -99.6590 186° South  Level Estimated
Sun 04:11:00 PM 17.5091 -99.6687 186° South  Level Estimated
Sun 04:12:00 PM 17.4237 -99.6784 186° South  Level Estimated
Sun 04:13:00 PM 17.3384 -99.6880 186° South  Level Estimated
Sun 04:14:00 PM 17.2530 -99.6977 186° South  Level Estimated
Sun 04:15:00 PM 17.1677 -99.7073 186° South  Level Estimated
Sun 04:16:00 PM 17.0823 -99.7169 186° South  Level Estimated
Sun 04:17:00 PM 16.9970 -99.7266 186° South  Level Estimated
Sun 04:18:00 PM 16.9116 -99.7362 186° South  Level Estimated
Sun 04:19:00 PM 16.8263 -99.7458 186° South  Level Estimated
Sun 04:20:00 PM 16.7569 -99.7536 186° South  Level Estimated
Sun 04:21:00 PM 16.7569 -99.7536 62° Northeast  Level Estimated
Sun 04:22:00 PM 16.7569 -99.7536 62° Northeast  Level Estimated
Sun 04:23:00 PM 16.7569 -99.7536 62° Northeast  Level Estimated
Sun 04:24:00 PM 16.7569 -99.7536 62° Northeast  Level Estimated
Sun 04:25:00 PM 16.7569 -99.7536 62° Northeast  Level Estimated
Sun 04:26:00 PM 16.7569 -99.7536 62° Northeast  Level Estimated
Sun 04:27:00 PM 16.7569 -99.7536 62° Northeast  Level Estimated
Sun 04:28:00 PM 16.7569 -99.7536 62° Northeast  Level Estimated
Sun 04:29:00 PM 16.7569 -99.7536 62° Northeast  Level Estimated
Sun 04:30:00 PM 16.7569 -99.7536 62° Northeast  Level Estimated
Sun 04:31:00 PM 16.7569 -99.7536 62° Northeast  Level Estimated
Sun 04:32:00 PM 16.7569 -99.7536 62° Northeast  Level Estimated
Sun 04:33:00 PM 16.7569 -99.7536 62° Northeast  Level Estimated

Login

Don't have an account? Register now (free) for customized features, flight alerts, and more!